Terminal Aerodrome Forecast
Issued by NWS

Home | Current Version | Previous Version | Text Only | Print | Product List | Glossary On
Versions: 1 2 3 4 5 6 7 8 9 10 11 12 13 14 15 16 17 18 19 20 21 22 23
000
FTUS44 KBMX 241800 AAA
TAFANB
TAF AMD
KANB 241838Z 2419/2518 24007KT 4SM -TSRA SCT035CB
     FM242000 28007KT P6SM VCTS SCT035CB
     FM242300 29005KT P6SM SCT040
     FM250500 29002KT 6SM BR SKC
     FM251000 11002KT 2SM BR SCT002
     FM251500 22003KT P6SM SCT035=

USA.gov is the U.S. government's official web portal to all federal, state and local government web resources and services.